TimeCDT,TemperatureF,Dew PointF,Humidity,Sea Level PressureIn,VisibilityMPH,Wind Direction,Wind SpeedMPH,Gust SpeedMPH,PrecipitationIn,Events,Conditions,WindDirDegrees,DateUTC
12:53 AM,48.9,28.9,46,30.01,10.0,NNW,20.7,29.9,N/A,,Overcast,340,2011-10-30 05:53:00
1:53 AM,48.0,30.0,50,30.04,10.0,NNW,17.3,24.2,N/A,,Mostly Cloudy,330,2011-10-30 06:53:00
2:53 AM,46.4,30.2,53,30.09,10.0,NNW,12.7,-,N/A,,Overcast,340,2011-10-30 07:53:00
3:53 AM,42.1,28.9,60,30.09,10.0,NNW,11.5,-,N/A,,Clear,340,2011-10-30 08:53:00
4:53 AM,30.9,26.1,82,30.11,10.0,WNW,5.8,-,N/A,,Clear,300,2011-10-30 09:53:00
5:53 AM,28.9,25.0,85,30.14,10.0,NNW,3.5,-,N/A,,Clear,340,2011-10-30 10:53:00
6:53 AM,26.6,24.8,93,30.12,10.0,NW,5.8,-,N/A,,Clear,310,2011-10-30 11:53:00
7:53 AM,27.0,24.1,89,30.17,10.0,NW,6.9,-,N/A,,Clear,310,2011-10-30 12:53:00
8:53 AM,30.0,26.1,85,30.18,10.0,NW,5.8,-,N/A,,Clear,320,2011-10-30 13:53:00
9:53 AM,37.9,33.1,83,30.19,10.0,WNW,6.9,-,N/A,,Clear,300,2011-10-30 14:53:00
10:53 AM,46.0,32.0,58,30.18,10.0,WNW,10.4,-,N/A,,Clear,290,2011-10-30 15:53:00
11:53 AM,52.0,32.0,47,30.16,10.0,West,9.2,17.3,N/A,,Clear,270,2011-10-30 16:53:00
12:53 PM,55.0,28.0,35,30.15,10.0,WNW,11.5,20.7,N/A,,Clear,300,2011-10-30 17:53:00
1:53 PM,57.9,27.0,31,30.12,10.0,WNW,16.1,26.5,N/A,,Clear,290,2011-10-30 18:53:00
2:53 PM,59.0,25.0,27,30.09,10.0,WNW,25.3,31.1,N/A,,Clear,300,2011-10-30 19:53:00
3:53 PM,59.0,26.1,28,30.08,10.0,NW,18.4,25.3,N/A,,Clear,310,2011-10-30 20:53:00
4:53 PM,57.9,27.0,31,30.10,10.0,WNW,13.8,-,N/A,,Clear,290,2011-10-30 21:53:00
5:53 PM,55.0,28.9,37,30.10,10.0,WNW,9.2,-,N/A,,Clear,290,2011-10-30 22:53:00
6:53 PM,48.0,28.0,46,30.12,10.0,NW,5.8,-,N/A,,Clear,310,2011-10-30 23:53:00
7:53 PM,42.1,28.0,58,30.15,10.0,Calm,Calm,-,N/A,,Clear,0,2011-10-31 00:53:00
8:53 PM,37.0,28.0,70,30.16,10.0,Calm,Calm,-,N/A,,Clear,0,2011-10-31 01:53:00
9:53 PM,34.0,26.1,73,30.16,10.0,Calm,Calm,-,N/A,,Clear,0,2011-10-31 02:53:00
10:53 PM,32.0,26.1,79,30.15,10.0,Calm,Calm,-,N/A,,Clear,0,2011-10-31 03:53:00
11:53 PM,28.0,24.1,85,30.14,10.0,Calm,Calm,-,N/A,,Clear,0,2011-10-31 04:53:00